sensor_id;sensor_type;location;lat;lon;timestamp;P1;durP1;ratioP1;P2;durP2;ratioP2
61344;SDS011;47216;42.656;23.232;2024-01-10T00:00:03;1.53;;;1.23;;
61344;SDS011;47216;42.656;23.232;2024-01-10T00:02:30;2.73;;;1.60;;
61344;SDS011;47216;42.656;23.232;2024-01-10T00:04:57;2.83;;;1.50;;
61344;SDS011;47216;42.656;23.232;2024-01-10T00:07:24;3.43;;;1.97;;
61344;SDS011;47216;42.656;23.232;2024-01-10T00:09:51;3.70;;;1.77;;
61344;SDS011;47216;42.656;23.232;2024-01-10T00:12:17;2.47;;;1.33;;
61344;SDS011;47216;42.656;23.232;2024-01-10T00:14:44;3.23;;;1.83;;
61344;SDS011;47216;42.656;23.232;2024-01-10T00:17:12;4.50;;;1.93;;
61344;SDS011;47216;42.656;23.232;2024-01-10T00:19:39;1.53;;;1.30;;
61344;SDS011;47216;42.656;23.232;2024-01-10T00:22:06;2.83;;;2.03;;
61344;SDS011;47216;42.656;23.232;2024-01-10T00:24:32;5.30;;;2.23;;
61344;SDS011;47216;42.656;23.232;2024-01-10T00:26:59;3.43;;;1.87;;
61344;SDS011;47216;42.656;23.232;2024-01-10T00:29:26;2.83;;;1.70;;
61344;SDS011;47216;42.656;23.232;2024-01-10T00:31:53;2.70;;;1.77;;
61344;SDS011;47216;42.656;23.232;2024-01-10T00:34:21;1.93;;;1.70;;
61344;SDS011;47216;42.656;23.232;2024-01-10T00:36:48;2.90;;;1.60;;
61344;SDS011;47216;42.656;23.232;2024-01-10T00:39:14;2.50;;;1.57;;
61344;SDS011;47216;42.656;23.232;2024-01-10T00:41:41;4.40;;;2.40;;
61344;SDS011;47216;42.656;23.232;2024-01-10T00:44:08;5.13;;;3.03;;
61344;SDS011;47216;42.656;23.232;2024-01-10T00:46:35;5.73;;;3.20;;
61344;SDS011;47216;42.656;23.232;2024-01-10T00:49:01;4.80;;;3.10;;
61344;SDS011;47216;42.656;23.232;2024-01-10T00:51:30;4.17;;;1.93;;
61344;SDS011;47216;42.656;23.232;2024-01-10T00:53:56;2.77;;;1.33;;
61344;SDS011;47216;42.656;23.232;2024-01-10T00:56:23;6.37;;;3.90;;
61344;SDS011;47216;42.656;23.232;2024-01-10T00:58:50;8.23;;;4.23;;
61344;SDS011;47216;42.656;23.232;2024-01-10T01:01:21;3.93;;;2.70;;
61344;SDS011;47216;42.656;23.232;2024-01-10T01:03:47;3.13;;;2.23;;
61344;SDS011;47216;42.656;23.232;2024-01-10T01:06:14;4.30;;;3.10;;
61344;SDS011;47216;42.656;23.232;2024-01-10T01:08:42;6.10;;;3.57;;
61344;SDS011;47216;42.656;23.232;2024-01-10T01:11:09;3.93;;;2.90;;
61344;SDS011;47216;42.656;23.232;2024-01-10T01:13:37;4.60;;;2.90;;
61344;SDS011;47216;42.656;23.232;2024-01-10T01:16:04;2.97;;;1.93;;
61344;SDS011;47216;42.656;23.232;2024-01-10T01:18:31;2.40;;;1.80;;
61344;SDS011;47216;42.656;23.232;2024-01-10T01:20:58;2.83;;;1.73;;
61344;SDS011;47216;42.656;23.232;2024-01-10T01:23:24;2.03;;;1.40;;
61344;SDS011;47216;42.656;23.232;2024-01-10T01:25:52;4.00;;;1.77;;
61344;SDS011;47216;42.656;23.232;2024-01-10T01:28:19;2.57;;;1.83;;
61344;SDS011;47216;42.656;23.232;2024-01-10T01:30:46;5.70;;;2.00;;
61344;SDS011;47216;42.656;23.232;2024-01-10T01:33:13;4.10;;;2.37;;
61344;SDS011;47216;42.656;23.232;2024-01-10T01:35:39;2.27;;;1.70;;
61344;SDS011;47216;42.656;23.232;2024-01-10T01:38:06;2.53;;;1.40;;
61344;SDS011;47216;42.656;23.232;2024-01-10T01:40:33;1.80;;;1.20;;
61344;SDS011;47216;42.656;23.232;2024-01-10T01:43:01;2.30;;;1.60;;
61344;SDS011;47216;42.656;23.232;2024-01-10T01:45:41;1.90;;;1.30;;
61344;SDS011;47216;42.656;23.232;2024-01-10T01:48:08;1.67;;;1.10;;
61344;SDS011;47216;42.656;23.232;2024-01-10T01:50:35;2.83;;;1.50;;
61344;SDS011;47216;42.656;23.232;2024-01-10T01:53:02;1.77;;;1.10;;
61344;SDS011;47216;42.656;23.232;2024-01-10T01:55:30;1.67;;;1.27;;
61344;SDS011;47216;42.656;23.232;2024-01-10T01:57:56;1.40;;;1.20;;
61344;SDS011;47216;42.656;23.232;2024-01-10T02:00:24;1.70;;;1.40;;
61344;SDS011;47216;42.656;23.232;2024-01-10T02:02:52;1.60;;;1.20;;
61344;SDS011;47216;42.656;23.232;2024-01-10T02:05:20;1.37;;;1.07;;
61344;SDS011;47216;42.656;23.232;2024-01-10T02:07:49;1.87;;;1.27;;
61344;SDS011;47216;42.656;23.232;2024-01-10T02:10:15;3.30;;;1.50;;
61344;SDS011;47216;42.656;23.232;2024-01-10T02:12:42;2.40;;;1.40;;
61344;SDS011;47216;42.656;23.232;2024-01-10T02:15:10;2.07;;;1.50;;
61344;SDS011;47216;42.656;23.232;2024-01-10T02:17:38;1.53;;;1.30;;
61344;SDS011;47216;42.656;23.232;2024-01-10T02:20:08;2.70;;;1.60;;
61344;SDS011;47216;42.656;23.232;2024-01-10T02:22:35;2.27;;;1.33;;
61344;SDS011;47216;42.656;23.232;2024-01-10T02:25:04;2.60;;;1.73;;
61344;SDS011;47216;42.656;23.232;2024-01-10T02:27:32;1.93;;;1.63;;
61344;SDS011;47216;42.656;23.232;2024-01-10T02:30:00;2.90;;;1.80;;
61344;SDS011;47216;42.656;23.232;2024-01-10T02:32:29;4.63;;;2.07;;
61344;SDS011;47216;42.656;23.232;2024-01-10T02:34:55;3.10;;;1.77;;
61344;SDS011;47216;42.656;23.232;2024-01-10T02:37:22;5.47;;;1.77;;
61344;SDS011;47216;42.656;23.232;2024-01-10T02:39:49;2.50;;;1.83;;
61344;SDS011;47216;42.656;23.232;2024-01-10T02:42:19;2.60;;;1.70;;
61344;SDS011;47216;42.656;23.232;2024-01-10T02:44:45;3.10;;;1.97;;
61344;SDS011;47216;42.656;23.232;2024-01-10T02:47:12;3.83;;;1.70;;
61344;SDS011;47216;42.656;23.232;2024-01-10T02:49:39;3.63;;;1.90;;
61344;SDS011;47216;42.656;23.232;2024-01-10T02:52:06;2.20;;;1.40;;
61344;SDS011;47216;42.656;23.232;2024-01-10T02:54:32;2.20;;;1.53;;
61344;SDS011;47216;42.656;23.232;2024-01-10T02:56:59;2.40;;;1.37;;
61344;SDS011;47216;42.656;23.232;2024-01-10T02:59:27;3.90;;;2.13;;
61344;SDS011;47216;42.656;23.232;2024-01-10T03:01:54;1.93;;;1.20;;
61344;SDS011;47216;42.656;23.232;2024-01-10T03:04:21;1.87;;;1.50;;
61344;SDS011;47216;42.656;23.232;2024-01-10T03:06:48;2.17;;;1.30;;
61344;SDS011;47216;42.656;23.232;2024-01-10T03:09:15;2.90;;;1.80;;
61344;SDS011;47216;42.656;23.232;2024-01-10T03:11:42;2.17;;;1.80;;
61344;SDS011;47216;42.656;23.232;2024-01-10T03:14:09;3.30;;;2.10;;
61344;SDS011;47216;42.656;23.232;2024-01-10T03:16:38;2.83;;;1.60;;
61344;SDS011;47216;42.656;23.232;2024-01-10T03:19:05;4.83;;;1.90;;
61344;SDS011;47216;42.656;23.232;2024-01-10T03:21:32;2.10;;;1.53;;
61344;SDS011;47216;42.656;23.232;2024-01-10T03:23:59;2.30;;;1.50;;
61344;SDS011;47216;42.656;23.232;2024-01-10T03:26:27;1.43;;;1.20;;
61344;SDS011;47216;42.656;23.232;2024-01-10T03:28:55;2.70;;;1.40;;
61344;SDS011;47216;42.656;23.232;2024-01-10T03:31:23;2.43;;;1.50;;
61344;SDS011;47216;42.656;23.232;2024-01-10T03:33:51;2.27;;;1.40;;
61344;SDS011;47216;42.656;23.232;2024-01-10T03:36:18;0.93;;;0.93;;
61344;SDS011;47216;42.656;23.232;2024-01-10T03:38:45;1.50;;;1.17;;
61344;SDS011;47216;42.656;23.232;2024-01-10T03:41:12;2.27;;;1.60;;
61344;SDS011;47216;42.656;23.232;2024-01-10T03:43:39;2.63;;;1.50;;
61344;SDS011;47216;42.656;23.232;2024-01-10T03:46:06;2.17;;;1.53;;
61344;SDS011;47216;42.656;23.232;2024-01-10T03:48:33;2.60;;;2.20;;
61344;SDS011;47216;42.656;23.232;2024-01-10T03:51:01;3.67;;;2.37;;
61344;SDS011;47216;42.656;23.232;2024-01-10T03:53:28;2.27;;;1.47;;
61344;SDS011;47216;42.656;23.232;2024-01-10T03:55:56;1.70;;;1.20;;
61344;SDS011;47216;42.656;23.232;2024-01-10T03:58:23;1.73;;;1.20;;
61344;SDS011;47216;42.656;23.232;2024-01-10T04:00:50;1.63;;;1.27;;
61344;SDS011;47216;42.656;23.232;2024-01-10T04:03:17;1.97;;;1.37;;
61344;SDS011;47216;42.656;23.232;2024-01-10T04:05:43;1.70;;;1.30;;
61344;SDS011;47216;42.656;23.232;2024-01-10T04:08:12;3.17;;;1.70;;
61344;SDS011;47216;42.656;23.232;2024-01-10T04:10:38;2.10;;;1.40;;
61344;SDS011;47216;42.656;23.232;2024-01-10T04:13:05;1.93;;;1.27;;
61344;SDS011;47216;42.656;23.232;2024-01-10T04:15:32;2.77;;;1.43;;
61344;SDS011;47216;42.656;23.232;2024-01-10T04:17:59;2.50;;;1.90;;
61344;SDS011;47216;42.656;23.232;2024-01-10T04:20:26;3.33;;;1.90;;
61344;SDS011;47216;42.656;23.232;2024-01-10T04:22:53;2.50;;;2.20;;
61344;SDS011;47216;42.656;23.232;2024-01-10T04:25:21;2.70;;;1.93;;
61344;SDS011;47216;42.656;23.232;2024-01-10T04:27:48;2.03;;;1.40;;
61344;SDS011;47216;42.656;23.232;2024-01-10T04:30:15;1.30;;;1.20;;
61344;SDS011;47216;42.656;23.232;2024-01-10T04:32:42;2.40;;;1.50;;
61344;SDS011;47216;42.656;23.232;2024-01-10T04:35:09;2.77;;;1.37;;
61344;SDS011;47216;42.656;23.232;2024-01-10T04:37:36;4.77;;;1.83;;
61344;SDS011;47216;42.656;23.232;2024-01-10T04:40:03;3.90;;;1.90;;
61344;SDS011;47216;42.656;23.232;2024-01-10T04:42:32;2.70;;;1.73;;
61344;SDS011;47216;42.656;23.232;2024-01-10T04:44:58;2.43;;;1.57;;
61344;SDS011;47216;42.656;23.232;2024-01-10T04:47:25;3.03;;;1.73;;
61344;SDS011;47216;42.656;23.232;2024-01-10T04:49:52;2.57;;;1.80;;
61344;SDS011;47216;42.656;23.232;2024-01-10T04:52:19;2.57;;;1.90;;
61344;SDS011;47216;42.656;23.232;2024-01-10T04:54:45;4.50;;;2.07;;
61344;SDS011;47216;42.656;23.232;2024-01-10T04:57:12;2.97;;;1.60;;
61344;SDS011;47216;42.656;23.232;2024-01-10T04:59:40;3.60;;;2.13;;
61344;SDS011;47216;42.656;23.232;2024-01-10T05:02:07;3.23;;;1.67;;
61344;SDS011;47216;42.656;23.232;2024-01-10T05:04:34;2.83;;;1.90;;
61344;SDS011;47216;42.656;23.232;2024-01-10T05:07:01;2.03;;;1.30;;
61344;SDS011;47216;42.656;23.232;2024-01-10T05:09:27;2.20;;;0.97;;
61344;SDS011;47216;42.656;23.232;2024-01-10T05:11:54;3.23;;;1.83;;
61344;SDS011;47216;42.656;23.232;2024-01-10T05:14:21;2.90;;;1.60;;
61344;SDS011;47216;42.656;23.232;2024-01-10T05:16:50;2.60;;;1.53;;
61344;SDS011;47216;42.656;23.232;2024-01-10T05:19:18;2.57;;;1.43;;
61344;SDS011;47216;42.656;23.232;2024-01-10T05:21:45;6.00;;;1.50;;
61344;SDS011;47216;42.656;23.232;2024-01-10T05:24:12;2.37;;;1.27;;
61344;SDS011;47216;42.656;23.232;2024-01-10T05:26:39;3.93;;;1.53;;
61344;SDS011;47216;42.656;23.232;2024-01-10T05:29:05;4.67;;;2.17;;
61344;SDS011;47216;42.656;23.232;2024-01-10T05:31:32;3.50;;;1.73;;
61344;SDS011;47216;42.656;23.232;2024-01-10T05:34:01;2.23;;;1.83;;
61344;SDS011;47216;42.656;23.232;2024-01-10T05:36:27;4.33;;;2.23;;
61344;SDS011;47216;42.656;23.232;2024-01-10T05:38:54;2.27;;;1.97;;
61344;SDS011;47216;42.656;23.232;2024-01-10T05:41:21;6.10;;;2.13;;
61344;SDS011;47216;42.656;23.232;2024-01-10T05:43:48;2.37;;;2.10;;
61344;SDS011;47216;42.656;23.232;2024-01-10T05:46:14;3.47;;;2.93;;
61344;SDS011;47216;42.656;23.232;2024-01-10T05:48:41;2.73;;;2.10;;
61344;SDS011;47216;42.656;23.232;2024-01-10T05:51:10;2.73;;;2.17;;
61344;SDS011;47216;42.656;23.232;2024-01-10T05:53:37;2.93;;;2.00;;
61344;SDS011;47216;42.656;23.232;2024-01-10T05:56:05;3.30;;;2.17;;
61344;SDS011;47216;42.656;23.232;2024-01-10T05:58:33;6.47;;;3.63;;
61344;SDS011;47216;42.656;23.232;2024-01-10T06:01:00;4.57;;;2.80;;
61344;SDS011;47216;42.656;23.232;2024-01-10T06:03:27;6.33;;;2.77;;
61344;SDS011;47216;42.656;23.232;2024-01-10T06:05:54;6.73;;;2.90;;
61344;SDS011;47216;42.656;23.232;2024-01-10T06:08:22;4.57;;;2.30;;
61344;SDS011;47216;42.656;23.232;2024-01-10T06:10:50;2.77;;;2.03;;
61344;SDS011;47216;42.656;23.232;2024-01-10T06:13:17;3.37;;;2.03;;
61344;SDS011;47216;42.656;23.232;2024-01-10T06:15:44;3.50;;;2.43;;
61344;SDS011;47216;42.656;23.232;2024-01-10T06:18:11;3.13;;;1.83;;
61344;SDS011;47216;42.656;23.232;2024-01-10T06:20:38;3.77;;;2.10;;
61344;SDS011;47216;42.656;23.232;2024-01-10T06:23:05;3.20;;;1.77;;
61344;SDS011;47216;42.656;23.232;2024-01-10T06:25:33;3.30;;;2.67;;
61344;SDS011;47216;42.656;23.232;2024-01-10T06:28:00;2.37;;;2.03;;
61344;SDS011;47216;42.656;23.232;2024-01-10T06:30:26;4.70;;;2.37;;
61344;SDS011;47216;42.656;23.232;2024-01-10T06:32:53;6.27;;;3.00;;
61344;SDS011;47216;42.656;23.232;2024-01-10T06:35:20;5.60;;;2.40;;
61344;SDS011;47216;42.656;23.232;2024-01-10T06:37:47;2.77;;;2.27;;
61344;SDS011;47216;42.656;23.232;2024-01-10T06:40:14;3.97;;;2.20;;
61344;SDS011;47216;42.656;23.232;2024-01-10T06:42:43;5.73;;;2.93;;
61344;SDS011;47216;42.656;23.232;2024-01-10T06:45:10;6.70;;;3.97;;
61344;SDS011;47216;42.656;23.232;2024-01-10T06:47:37;8.27;;;3.67;;
61344;SDS011;47216;42.656;23.232;2024-01-10T06:50:04;9.23;;;4.90;;
61344;SDS011;47216;42.656;23.232;2024-01-10T06:52:34;7.87;;;3.93;;
61344;SDS011;47216;42.656;23.232;2024-01-10T06:55:00;8.80;;;4.00;;
61344;SDS011;47216;42.656;23.232;2024-01-10T06:57:29;7.83;;;4.63;;
61344;SDS011;47216;42.656;23.232;2024-01-10T06:59:57;14.37;;;6.63;;
61344;SDS011;47216;42.656;23.232;2024-01-10T07:02:24;12.87;;;6.20;;
61344;SDS011;47216;42.656;23.232;2024-01-10T07:04:51;9.13;;;5.37;;
61344;SDS011;47216;42.656;23.232;2024-01-10T07:07:18;11.33;;;6.20;;
61344;SDS011;47216;42.656;23.232;2024-01-10T07:09:44;13.57;;;6.00;;
61344;SDS011;47216;42.656;23.232;2024-01-10T07:12:11;12.03;;;5.90;;
61344;SDS011;47216;42.656;23.232;2024-01-10T07:14:38;8.33;;;5.07;;
61344;SDS011;47216;42.656;23.232;2024-01-10T07:17:06;11.27;;;6.07;;
61344;SDS011;47216;42.656;23.232;2024-01-10T07:19:33;14.63;;;7.20;;
61344;SDS011;47216;42.656;23.232;2024-01-10T07:22:00;13.40;;;6.57;;
61344;SDS011;47216;42.656;23.232;2024-01-10T07:24:27;11.13;;;6.07;;
61344;SDS011;47216;42.656;23.232;2024-01-10T07:26:54;8.13;;;3.63;;
61344;SDS011;47216;42.656;23.232;2024-01-10T07:29:22;12.57;;;4.87;;
61344;SDS011;47216;42.656;23.232;2024-01-10T07:31:49;7.50;;;4.40;;
61344;SDS011;47216;42.656;23.232;2024-01-10T07:34:19;9.63;;;5.17;;
61344;SDS011;47216;42.656;23.232;2024-01-10T07:36:46;8.97;;;4.67;;
61344;SDS011;47216;42.656;23.232;2024-01-10T07:39:13;3.70;;;2.10;;
61344;SDS011;47216;42.656;23.232;2024-01-10T07:41:43;4.93;;;1.93;;
61344;SDS011;47216;42.656;23.232;2024-01-10T07:44:10;2.90;;;2.20;;
61344;SDS011;47216;42.656;23.232;2024-01-10T07:46:37;3.57;;;2.30;;
61344;SDS011;47216;42.656;23.232;2024-01-10T07:49:04;3.77;;;1.83;;
61344;SDS011;47216;42.656;23.232;2024-01-10T07:51:33;2.20;;;1.60;;
61344;SDS011;47216;42.656;23.232;2024-01-10T07:54:00;5.37;;;3.80;;
61344;SDS011;47216;42.656;23.232;2024-01-10T07:56:27;2.50;;;2.07;;
61344;SDS011;47216;42.656;23.232;2024-01-10T07:58:55;3.40;;;2.10;;
61344;SDS011;47216;42.656;23.232;2024-01-10T08:01:22;3.63;;;1.70;;
61344;SDS011;47216;42.656;23.232;2024-01-10T08:03:48;2.43;;;1.30;;
61344;SDS011;47216;42.656;23.232;2024-01-10T08:06:15;1.63;;;1.33;;
61344;SDS011;47216;42.656;23.232;2024-01-10T08:08:43;3.67;;;2.20;;
61344;SDS011;47216;42.656;23.232;2024-01-10T08:11:10;2.80;;;1.90;;
61344;SDS011;47216;42.656;23.232;2024-01-10T08:13:37;3.43;;;2.10;;
61344;SDS011;47216;42.656;23.232;2024-01-10T08:16:04;2.90;;;2.20;;
61344;SDS011;47216;42.656;23.232;2024-01-10T08:18:33;4.17;;;1.80;;
61344;SDS011;47216;42.656;23.232;2024-01-10T08:21:00;3.40;;;1.80;;
61344;SDS011;47216;42.656;23.232;2024-01-10T08:23:29;8.03;;;2.17;;
61344;SDS011;47216;42.656;23.232;2024-01-10T08:25:57;2.03;;;1.60;;
61344;SDS011;47216;42.656;23.232;2024-01-10T08:28:25;3.40;;;1.90;;
61344;SDS011;47216;42.656;23.232;2024-01-10T08:30:52;2.50;;;2.07;;
61344;SDS011;47216;42.656;23.232;2024-01-10T08:33:19;3.43;;;2.33;;
61344;SDS011;47216;42.656;23.232;2024-01-10T08:35:46;2.87;;;2.10;;
61344;SDS011;47216;42.656;23.232;2024-01-10T08:38:13;9.30;;;3.73;;
61344;SDS011;47216;42.656;23.232;2024-01-10T08:40:39;5.87;;;2.60;;
61344;SDS011;47216;42.656;23.232;2024-01-10T08:43:07;3.53;;;2.00;;
61344;SDS011;47216;42.656;23.232;2024-01-10T08:45:34;3.77;;;2.40;;
61344;SDS011;47216;42.656;23.232;2024-01-10T08:48:01;2.27;;;1.70;;
61344;SDS011;47216;42.656;23.232;2024-01-10T08:50:28;3.87;;;2.10;;
61344;SDS011;47216;42.656;23.232;2024-01-10T08:52:56;3.20;;;2.50;;
61344;SDS011;47216;42.656;23.232;2024-01-10T08:55:22;4.93;;;2.80;;
61344;SDS011;47216;42.656;23.232;2024-01-10T08:57:49;4.27;;;2.93;;
61344;SDS011;47216;42.656;23.232;2024-01-10T09:00:17;4.57;;;2.53;;
61344;SDS011;47216;42.656;23.232;2024-01-10T09:02:44;3.70;;;2.60;;
61344;SDS011;47216;42.656;23.232;2024-01-10T09:05:11;4.53;;;2.60;;
61344;SDS011;47216;42.656;23.232;2024-01-10T09:07:38;2.70;;;2.03;;
61344;SDS011;47216;42.656;23.232;2024-01-10T09:10:05;2.63;;;1.73;;
61344;SDS011;47216;42.656;23.232;2024-01-10T09:12:33;3.33;;;2.13;;
61344;SDS011;47216;42.656;23.232;2024-01-10T09:15:00;41.07;;;20.17;;
61344;SDS011;47216;42.656;23.232;2024-01-10T09:17:29;5.47;;;3.23;;
61344;SDS011;47216;42.656;23.232;2024-01-10T09:19:56;4.40;;;2.77;;
61344;SDS011;47216;42.656;23.232;2024-01-10T09:22:22;7.03;;;3.27;;
61344;SDS011;47216;42.656;23.232;2024-01-10T09:24:50;5.27;;;2.80;;
61344;SDS011;47216;42.656;23.232;2024-01-10T09:27:16;5.23;;;2.53;;
61344;SDS011;47216;42.656;23.232;2024-01-10T09:29:43;3.73;;;2.67;;
61344;SDS011;47216;42.656;23.232;2024-01-10T09:32:10;2.93;;;2.00;;
61344;SDS011;47216;42.656;23.232;2024-01-10T09:34:38;3.57;;;2.03;;
61344;SDS011;47216;42.656;23.232;2024-01-10T09:37:05;3.67;;;2.40;;
61344;SDS011;47216;42.656;23.232;2024-01-10T09:39:32;4.27;;;2.60;;
61344;SDS011;47216;42.656;23.232;2024-01-10T09:41:59;5.50;;;2.93;;
61344;SDS011;47216;42.656;23.232;2024-01-10T09:44:27;3.17;;;2.20;;
61344;SDS011;47216;42.656;23.232;2024-01-10T09:46:54;3.97;;;2.60;;
61344;SDS011;47216;42.656;23.232;2024-01-10T09:49:21;4.90;;;2.63;;
61344;SDS011;47216;42.656;23.232;2024-01-10T09:51:50;3.17;;;2.73;;
61344;SDS011;47216;42.656;23.232;2024-01-10T09:54:19;10.70;;;6.07;;
61344;SDS011;47216;42.656;23.232;2024-01-10T09:56:50;8.23;;;6.53;;
61344;SDS011;47216;42.656;23.232;2024-01-10T09:59:18;6.67;;;5.23;;
61344;SDS011;47216;42.656;23.232;2024-01-10T10:01:45;5.03;;;2.77;;
61344;SDS011;47216;42.656;23.232;2024-01-10T10:04:12;5.30;;;2.63;;
61344;SDS011;47216;42.656;23.232;2024-01-10T10:06:40;5.93;;;2.80;;
61344;SDS011;47216;42.656;23.232;2024-01-10T10:09:08;4.83;;;2.63;;
61344;SDS011;47216;42.656;23.232;2024-01-10T10:11:36;4.10;;;2.60;;
61344;SDS011;47216;42.656;23.232;2024-01-10T10:16:52;3.30;;;2.40;;
61344;SDS011;47216;42.656;23.232;2024-01-10T10:19:22;5.07;;;2.57;;
61344;SDS011;47216;42.656;23.232;2024-01-10T10:21:49;3.17;;;1.97;;
61344;SDS011;47216;42.656;23.232;2024-01-10T10:24:17;3.00;;;2.10;;
61344;SDS011;47216;42.656;23.232;2024-01-10T10:26:44;2.87;;;2.10;;
61344;SDS011;47216;42.656;23.232;2024-01-10T10:29:11;4.87;;;2.73;;
61344;SDS011;47216;42.656;23.232;2024-01-10T10:31:38;3.63;;;2.37;;
61344;SDS011;47216;42.656;23.232;2024-01-10T10:34:05;5.87;;;3.67;;
61344;SDS011;47216;42.656;23.232;2024-01-10T10:36:32;3.47;;;2.70;;
61344;SDS011;47216;42.656;23.232;2024-01-10T10:38:59;4.97;;;3.30;;
61344;SDS011;47216;42.656;23.232;2024-01-10T10:41:30;5.70;;;3.30;;
61344;SDS011;47216;42.656;23.232;2024-01-10T10:43:58;4.17;;;2.80;;
61344;SDS011;47216;42.656;23.232;2024-01-10T10:46:27;5.73;;;3.50;;
61344;SDS011;47216;42.656;23.232;2024-01-10T10:48:59;7.33;;;3.33;;
61344;SDS011;47216;42.656;23.232;2024-01-10T10:51:33;7.50;;;3.57;;
61344;SDS011;47216;42.656;23.232;2024-01-10T10:54:01;5.97;;;3.27;;
61344;SDS011;47216;42.656;23.232;2024-01-10T10:56:32;8.80;;;5.03;;
61344;SDS011;47216;42.656;23.232;2024-01-10T10:59:00;7.10;;;4.00;;
61344;SDS011;47216;42.656;23.232;2024-01-10T11:01:29;6.43;;;3.13;;
61344;SDS011;47216;42.656;23.232;2024-01-10T11:03:57;5.73;;;2.93;;
61344;SDS011;47216;42.656;23.232;2024-01-10T11:06:24;5.57;;;3.10;;
61344;SDS011;47216;42.656;23.232;2024-01-10T11:08:52;4.83;;;3.20;;
61344;SDS011;47216;42.656;23.232;2024-01-10T11:11:23;4.33;;;2.97;;
61344;SDS011;47216;42.656;23.232;2024-01-10T11:14:09;4.23;;;2.90;;
61344;SDS011;47216;42.656;23.232;2024-01-10T11:16:56;5.00;;;2.77;;
61344;SDS011;47216;42.656;23.232;2024-01-10T11:19:55;7.17;;;3.00;;
61344;SDS011;47216;42.656;23.232;2024-01-10T11:22:42;4.60;;;3.33;;
61344;SDS011;47216;42.656;23.232;2024-01-10T11:25:17;6.80;;;3.37;;
61344;SDS011;47216;42.656;23.232;2024-01-10T11:27:51;6.17;;;3.60;;
61344;SDS011;47216;42.656;23.232;2024-01-10T11:30:31;5.60;;;3.20;;
61344;SDS011;47216;42.656;23.232;2024-01-10T11:33:00;5.67;;;4.03;;
61344;SDS011;47216;42.656;23.232;2024-01-10T11:35:28;4.90;;;3.43;;
61344;SDS011;47216;42.656;23.232;2024-01-10T11:37:59;7.33;;;4.07;;
61344;SDS011;47216;42.656;23.232;2024-01-10T11:40:46;6.80;;;4.07;;
61344;SDS011;47216;42.656;23.232;2024-01-10T11:43:13;8.53;;;4.47;;
61344;SDS011;47216;42.656;23.232;2024-01-10T11:45:51;7.23;;;4.00;;
61344;SDS011;47216;42.656;23.232;2024-01-10T11:48:27;9.57;;;4.03;;
61344;SDS011;47216;42.656;23.232;2024-01-10T11:50:54;9.83;;;3.87;;
61344;SDS011;47216;42.656;23.232;2024-01-10T11:53:40;7.37;;;4.13;;
61344;SDS011;47216;42.656;23.232;2024-01-10T11:56:11;7.57;;;3.80;;
61344;SDS011;47216;42.656;23.232;2024-01-10T11:58:52;5.80;;;3.73;;
61344;SDS011;47216;42.656;23.232;2024-01-10T12:01:21;10.03;;;4.27;;
61344;SDS011;47216;42.656;23.232;2024-01-10T12:03:50;6.37;;;4.30;;
61344;SDS011;47216;42.656;23.232;2024-01-10T12:06:19;6.57;;;4.50;;
61344;SDS011;47216;42.656;23.232;2024-01-10T12:08:47;10.10;;;3.90;;
61344;SDS011;47216;42.656;23.232;2024-01-10T12:11:15;8.73;;;4.20;;
61344;SDS011;47216;42.656;23.232;2024-01-10T12:13:42;5.70;;;4.23;;
61344;SDS011;47216;42.656;23.232;2024-01-10T12:16:10;6.83;;;4.17;;
61344;SDS011;47216;42.656;23.232;2024-01-10T12:18:39;6.90;;;4.33;;
61344;SDS011;47216;42.656;23.232;2024-01-10T12:21:06;9.30;;;4.57;;
61344;SDS011;47216;42.656;23.232;2024-01-10T12:23:35;8.70;;;3.93;;
61344;SDS011;47216;42.656;23.232;2024-01-10T12:26:04;7.07;;;4.00;;
61344;SDS011;47216;42.656;23.232;2024-01-10T12:28:32;9.87;;;5.10;;
61344;SDS011;47216;42.656;23.232;2024-01-10T12:31:00;15.13;;;7.50;;
61344;SDS011;47216;42.656;23.232;2024-01-10T12:33:27;8.67;;;5.00;;
61344;SDS011;47216;42.656;23.232;2024-01-10T12:36:06;7.47;;;4.40;;
61344;SDS011;47216;42.656;23.232;2024-01-10T12:38:34;8.50;;;4.73;;
61344;SDS011;47216;42.656;23.232;2024-01-10T12:41:01;9.83;;;4.83;;
61344;SDS011;47216;42.656;23.232;2024-01-10T12:43:29;10.77;;;4.50;;
61344;SDS011;47216;42.656;23.232;2024-01-10T12:46:03;10.10;;;4.13;;
61344;SDS011;47216;42.656;23.232;2024-01-10T12:48:30;6.13;;;4.40;;
61344;SDS011;47216;42.656;23.232;2024-01-10T12:50:58;9.97;;;4.63;;
61344;SDS011;47216;42.656;23.232;2024-01-10T12:53:28;7.43;;;4.57;;
61344;SDS011;47216;42.656;23.232;2024-01-10T12:55:55;7.23;;;4.20;;
61344;SDS011;47216;42.656;23.232;2024-01-10T12:58:22;9.00;;;4.30;;
61344;SDS011;47216;42.656;23.232;2024-01-10T13:00:49;10.03;;;5.27;;
61344;SDS011;47216;42.656;23.232;2024-01-10T13:03:16;8.23;;;5.13;;
61344;SDS011;47216;42.656;23.232;2024-01-10T13:05:43;6.33;;;4.70;;
61344;SDS011;47216;42.656;23.232;2024-01-10T13:08:10;8.30;;;4.73;;
61344;SDS011;47216;42.656;23.232;2024-01-10T13:10:38;7.73;;;4.93;;
61344;SDS011;47216;42.656;23.232;2024-01-10T13:13:05;8.97;;;5.00;;
61344;SDS011;47216;42.656;23.232;2024-01-10T13:15:32;9.80;;;5.50;;
61344;SDS011;47216;42.656;23.232;2024-01-10T13:17:59;10.50;;;4.53;;
61344;SDS011;47216;42.656;23.232;2024-01-10T13:20:26;9.50;;;4.80;;
61344;SDS011;47216;42.656;23.232;2024-01-10T13:22:53;9.63;;;5.00;;
61344;SDS011;47216;42.656;23.232;2024-01-10T13:25:20;9.87;;;5.37;;
61344;SDS011;47216;42.656;23.232;2024-01-10T13:27:50;8.83;;;5.27;;
61344;SDS011;47216;42.656;23.232;2024-01-10T13:30:17;11.87;;;6.70;;
61344;SDS011;47216;42.656;23.232;2024-01-10T13:32:44;11.77;;;5.23;;
61344;SDS011;47216;42.656;23.232;2024-01-10T13:35:11;8.87;;;4.37;;
61344;SDS011;47216;42.656;23.232;2024-01-10T13:37:39;8.23;;;4.87;;
61344;SDS011;47216;42.656;23.232;2024-01-10T13:40:06;8.70;;;4.97;;
61344;SDS011;47216;42.656;23.232;2024-01-10T13:42:34;8.17;;;4.80;;
61344;SDS011;47216;42.656;23.232;2024-01-10T13:45:03;5.83;;;3.90;;
61344;SDS011;47216;42.656;23.232;2024-01-10T13:47:31;6.33;;;4.43;;
61344;SDS011;47216;42.656;23.232;2024-01-10T13:49:59;7.83;;;4.97;;
61344;SDS011;47216;42.656;23.232;2024-01-10T13:52:26;11.83;;;5.17;;
61344;SDS011;47216;42.656;23.232;2024-01-10T13:54:52;8.27;;;5.47;;
61344;SDS011;47216;42.656;23.232;2024-01-10T13:57:19;12.57;;;5.83;;
61344;SDS011;47216;42.656;23.232;2024-01-10T13:59:46;10.93;;;6.00;;
61344;SDS011;47216;42.656;23.232;2024-01-10T14:02:14;11.10;;;6.00;;
61344;SDS011;47216;42.656;23.232;2024-01-10T14:04:43;11.93;;;5.93;;
61344;SDS011;47216;42.656;23.232;2024-01-10T14:07:11;10.30;;;6.17;;
61344;SDS011;47216;42.656;23.232;2024-01-10T14:09:37;18.90;;;6.87;;
61344;SDS011;47216;42.656;23.232;2024-01-10T14:12:05;33.93;;;14.87;;
61344;SDS011;47216;42.656;23.232;2024-01-10T14:14:32;51.57;;;20.13;;
61344;SDS011;47216;42.656;23.232;2024-01-10T14:16:59;58.10;;;22.47;;
61344;SDS011;47216;42.656;23.232;2024-01-10T14:19:27;37.97;;;16.90;;
61344;SDS011;47216;42.656;23.232;2024-01-10T14:21:53;29.50;;;14.37;;
61344;SDS011;47216;42.656;23.232;2024-01-10T14:24:20;13.13;;;7.43;;
61344;SDS011;47216;42.656;23.232;2024-01-10T14:26:47;15.30;;;7.60;;
61344;SDS011;47216;42.656;23.232;2024-01-10T14:29:14;14.70;;;8.57;;
61344;SDS011;47216;42.656;23.232;2024-01-10T14:31:41;17.43;;;9.27;;
61344;SDS011;47216;42.656;23.232;2024-01-10T14:34:07;12.37;;;7.23;;
61344;SDS011;47216;42.656;23.232;2024-01-10T14:36:36;15.90;;;8.90;;
61344;SDS011;47216;42.656;23.232;2024-01-10T14:39:03;19.10;;;9.00;;